Agawam, Massachusetts
Current Conditions -  °F | °C
As of 2:53 PM on Wednesday 28 Jan 2015 (Local Time) from KBAF Reporting Station
Clear Clear  
Wind Chill: 16°   Ceiling: Unl
Heat Index: 27°   Visibility: 10mi
Dew Point:   Wind: 14mph
Humidity: 45%   Direction: 330°NNW
Pressure: 30.03"   Gusts: 23mph
Location:  42.07°N, 72.61°W
Report Text: KBAF 281953Z 33012G20KT 10SM CLR M03/M13 A3003 RMK AO2 SLP177 T10281133
Loading
Personal Weather Stations






























Interactive Weather Map New forecast layout! Learn more

10-Day Weather Forecast

Advertisements
Track Severe Weather on mobile